Time;durP1;ratioP1;P1;durP2;ratioP2;P2;SDS_P1;SDS_P2;PMS_P1;PMS_P2;Temp;Humidity;BMP_temperature;BMP_pressure;BME280_temperature;BME280_humidity;BME280_pressure;Samples;Min_cycle;Max_cycle;Signal;HPM_P1;HPM_P2
2022/12/08 00:00:46;;;;;;;1.60;1.50;;;1.10;99.90;;;;;;5156068;27;20446;-79
2022/12/08 00:03:12;;;;;;;2.97;0.67;;;1.00;99.90;;;;;;5155652;27;21002;-80
2022/12/08 00:11:15;;;;;;;0.60;0.60;;;0.90;99.90;;;;;;5155647;27;20409;-80
2022/12/08 00:13:41;;;;;;;0.40;0.40;;;0.80;99.90;;;;;;5155798;27;20469;-79
2022/12/08 00:16:10;;;;;;;1.13;0.50;;;0.80;99.90;;;;;;5155644;27;20433;-80
2022/12/08 00:18:36;;;;;;;0.53;0.53;;;0.80;99.90;;;;;;5156335;27;20437;-79
2022/12/08 00:21:04;;;;;;;4.87;0.77;;;0.80;99.90;;;;;;5155358;27;20477;-80
2022/12/08 00:23:30;;;;;;;0.40;0.40;;;0.80;99.90;;;;;;5155627;27;20446;-79
2022/12/08 00:26:01;;;;;;;0.97;0.40;;;0.80;99.90;;;;;;5155816;27;20473;-80
2022/12/08 00:28:28;;;;;;;0.83;0.73;;;0.70;99.90;;;;;;5156292;27;20446;-79
2022/12/08 00:30:54;;;;;;;0.40;0.40;;;0.70;99.90;;;;;;5155596;27;20435;-80
2022/12/08 00:33:22;;;;;;;0.57;0.40;;;0.70;99.90;;;;;;5155483;27;20412;-80
2022/12/08 00:35:49;;;;;;;0.87;0.87;;;0.70;99.90;;;;;;5155040;27;21021;-80
2022/12/08 00:38:16;;;;;;;0.47;0.47;;;0.80;99.90;;;;;;5155427;27;20442;-80
2022/12/08 00:40:44;;;;;;;0.40;0.40;;;0.70;99.90;;;;;;5155410;27;20428;-79
2022/12/08 00:43:11;;;;;;;0.30;0.30;;;0.60;99.90;;;;;;5155396;27;20442;-80
2022/12/08 00:45:38;;;;;;;0.70;0.70;;;0.60;99.90;;;;;;5155108;27;20461;-80
2022/12/08 00:48:05;;;;;;;0.30;0.30;;;0.60;99.90;;;;;;5155296;27;20447;-80
2022/12/08 00:50:33;;;;;;;0.53;0.53;;;0.60;99.90;;;;;;5154539;27;20442;-80
2022/12/08 00:53:00;;;;;;;0.30;0.30;;;0.50;99.90;;;;;;5155031;27;20815;-80
2022/12/08 00:55:27;;;;;;;0.60;0.50;;;0.50;99.90;;;;;;5155130;27;20462;-80
2022/12/08 00:57:53;;;;;;;0.90;0.80;;;0.50;99.90;;;;;;5155084;27;20445;-80
2022/12/08 01:00:21;;;;;;;0.30;0.30;;;0.50;99.90;;;;;;5155113;27;20510;-80
2022/12/08 01:02:47;;;;;;;0.30;0.30;;;0.50;99.90;;;;;;5155089;27;20528;-80
2022/12/08 01:05:14;;;;;;;0.30;0.20;;;0.50;99.90;;;;;;5155020;27;20436;-80
2022/12/08 01:07:42;;;;;;;2.13;1.30;;;0.50;99.90;;;;;;5154990;27;20481;-80
2022/12/08 01:10:09;;;;;;;0.47;0.47;;;0.50;99.90;;;;;;5155017;27;20448;-80
2022/12/08 01:12:36;;;;;;;0.40;0.40;;;0.50;99.90;;;;;;5155003;27;20446;-79
2022/12/08 01:15:03;;;;;;;0.30;0.30;;;0.50;99.90;;;;;;5154901;27;20436;-80
2022/12/08 01:17:30;;;;;;;0.40;0.40;;;0.40;99.90;;;;;;5155347;27;20434;-80
2022/12/08 01:19:57;;;;;;;0.93;0.87;;;0.40;99.90;;;;;;5155141;27;20451;-80
2022/12/08 01:22:24;;;;;;;0.60;0.60;;;0.40;99.90;;;;;;5154493;27;20477;-80
2022/12/08 01:24:52;;;;;;;1.10;0.43;;;0.40;99.90;;;;;;5154849;27;20497;-80
2022/12/08 01:27:19;;;;;;;0.30;0.30;;;0.40;99.90;;;;;;5154768;27;20459;-80
2022/12/08 01:29:45;;;;;;;0.40;0.40;;;0.40;99.90;;;;;;5154526;27;20934;-80
2022/12/08 01:32:12;;;;;;;2.20;0.70;;;0.30;99.90;;;;;;5154553;27;20412;-80
2022/12/08 01:34:39;;;;;;;0.30;0.30;;;0.30;99.90;;;;;;5154674;27;20475;-80
2022/12/08 01:37:06;;;;;;;0.40;0.40;;;0.30;99.90;;;;;;5154790;27;20412;-80
2022/12/08 01:39:33;;;;;;;0.40;0.40;;;0.30;99.90;;;;;;5154428;27;20977;-80
2022/12/08 01:42:01;;;;;;;0.30;0.30;;;0.20;99.90;;;;;;5154710;27;20495;-80
2022/12/08 01:44:52;;;;;;;0.30;0.30;;;0.20;99.90;;;;;;5154684;27;20428;-80
2022/12/08 01:47:19;;;;;;;0.30;0.30;;;0.20;99.90;;;;;;5154631;27;20473;-80
2022/12/08 01:49:47;;;;;;;0.30;0.30;;;0.10;99.90;;;;;;5154673;27;20408;-80
2022/12/08 01:52:18;;;;;;;1.07;0.77;;;0.10;99.90;;;;;;5154613;27;20428;-80
2022/12/08 01:54:53;;;;;;;1.03;1.03;;;0.10;99.90;;;;;;5154307;27;20429;-80
2022/12/08 01:57:26;;;;;;;0.30;0.30;;;0.10;99.90;;;;;;5154605;27;20397;-80
2022/12/08 01:59:56;;;;;;;0.30;0.30;;;0.10;99.90;;;;;;5155100;27;20425;-80
2022/12/08 02:02:26;;;;;;;0.60;0.60;;;0.00;99.90;;;;;;5155270;27;20518;-80
2022/12/08 02:04:52;;;;;;;0.30;0.30;;;0.00;99.90;;;;;;5157937;27;20420;-80
2022/12/08 02:07:20;;;;;;;0.30;0.30;;;0.00;99.90;;;;;;5158218;27;20602;-80
2022/12/08 02:09:47;;;;;;;0.70;0.70;;;0.00;99.90;;;;;;5158471;27;20966;-80
2022/12/08 02:12:14;;;;;;;0.30;0.30;;;-0.10;99.90;;;;;;5158190;27;20445;-80
2022/12/08 02:14:42;;;;;;;0.40;0.40;;;-0.10;99.90;;;;;;5157751;27;20447;-81
2022/12/08 02:17:22;;;;;;;0.60;0.50;;;-0.10;99.90;;;;;;5158103;27;20429;-81
2022/12/08 02:20:11;;;;;;;0.40;0.40;;;0.00;99.90;;;;;;5158037;27;20433;-80
2022/12/08 02:22:45;;;;;;;0.30;0.30;;;-0.10;99.90;;;;;;5157657;27;20968;-81
2022/12/08 02:25:19;;;;;;;0.30;0.30;;;-0.10;99.90;;;;;;5157877;27;20458;-81
2022/12/08 02:28:01;;;;;;;0.60;0.60;;;0.00;99.90;;;;;;5157832;27;20440;-81
2022/12/08 02:30:42;;;;;;;0.30;0.30;;;-0.10;99.90;;;;;;5157891;27;20412;-81
2022/12/08 02:33:43;;;;;;;0.30;0.30;;;-0.10;99.90;;;;;;5158352;27;20420;-81
2022/12/08 02:36:17;;;;;;;0.30;0.30;;;-0.10;99.90;;;;;;5143959;27;20470;-81
2022/12/08 02:38:52;;;;;;;2.10;0.60;;;-0.10;99.90;;;;;;5157715;27;20527;-81
2022/12/08 02:41:27;;;;;;;0.30;0.30;;;-0.10;99.90;;;;;;5157685;27;20441;-81
2022/12/08 02:44:00;;;;;;;0.40;0.40;;;-0.10;99.90;;;;;;5157584;27;20404;-81
2022/12/08 02:46:31;;;;;;;0.30;0.30;;;-0.10;99.90;;;;;;5157115;27;20477;-81
2022/12/08 02:48:59;;;;;;;0.30;0.30;;;-0.10;99.90;;;;;;5157212;27;20898;-81
2022/12/08 02:51:27;;;;;;;0.30;0.30;;;-0.10;99.90;;;;;;5157399;27;20417;-81
2022/12/08 02:53:54;;;;;;;0.53;0.53;;;-0.20;99.90;;;;;;5157363;27;20417;-81
2022/12/08 02:56:38;;;;;;;0.40;0.40;;;-0.20;99.90;;;;;;5156943;27;20440;-81
2022/12/08 02:59:28;;;;;;;0.37;0.37;;;-0.20;99.90;;;;;;5157349;27;20426;-81
2022/12/08 03:02:14;;;;;;;0.30;0.30;;;-0.20;99.90;;;;;;5156946;27;20755;-81
2022/12/08 03:04:45;;;;;;;0.30;0.30;;;-0.20;99.90;;;;;;5157240;27;20426;-81
2022/12/08 03:07:22;;;;;;;0.30;0.30;;;-0.20;99.90;;;;;;5157168;27;20511;-81
2022/12/08 03:09:54;;;;;;;0.30;0.30;;;-0.20;99.90;;;;;;5156747;27;20793;-81
2022/12/08 03:12:25;;;;;;;0.50;0.43;;;-0.20;99.90;;;;;;5157058;27;20408;-81
2022/12/08 03:14:55;;;;;;;0.30;0.30;;;-0.30;99.90;;;;;;5155980;27;20426;-82
2022/12/08 03:17:25;;;;;;;0.30;0.30;;;-0.30;99.90;;;;;;5156615;27;20437;-82
2022/12/08 03:19:54;;;;;;;0.57;0.47;;;-0.30;99.90;;;;;;5156915;27;20429;-82
2022/12/08 03:22:25;;;;;;;0.30;0.20;;;-0.30;99.90;;;;;;5156395;27;20477;-82
2022/12/08 03:24:52;;;;;;;0.33;0.30;;;-0.40;99.90;;;;;;5156727;27;20408;-82
2022/12/08 03:27:22;;;;;;;0.57;0.57;;;-0.40;99.90;;;;;;5156641;27;20462;-82
2022/12/08 03:29:53;;;;;;;0.40;0.30;;;-0.30;99.90;;;;;;5156703;27;20505;-82
2022/12/08 03:32:26;;;;;;;0.70;0.70;;;-0.30;99.90;;;;;;5156621;27;20450;-82
2022/12/08 03:34:56;;;;;;;0.80;0.80;;;-0.30;99.90;;;;;;5156201;27;20768;-82
2022/12/08 03:37:26;;;;;;;0.77;0.77;;;-0.40;99.90;;;;;;5156276;27;20412;-82
2022/12/08 03:39:53;;;;;;;0.30;0.30;;;-0.30;99.90;;;;;;5156606;27;20422;-82
2022/12/08 03:42:20;;;;;;;0.30;0.30;;;-0.30;99.90;;;;;;5156950;27;20448;-82
2022/12/08 03:44:47;;;;;;;0.30;0.30;;;-0.30;99.90;;;;;;5156343;27;20427;-82
2022/12/08 03:47:13;;;;;;;0.30;0.30;;;-0.40;99.90;;;;;;5155972;27;20461;-82
2022/12/08 03:49:40;;;;;;;0.60;0.40;;;-0.40;99.90;;;;;;5155976;27;20837;-82
2022/12/08 03:52:07;;;;;;;0.30;0.30;;;-0.40;99.90;;;;;;5155919;27;20420;-82
2022/12/08 03:54:35;;;;;;;0.30;0.30;;;-0.40;99.90;;;;;;5155896;27;20417;-82
2022/12/08 03:57:02;;;;;;;1.03;0.60;;;-0.40;99.90;;;;;;5155765;27;20432;-83
2022/12/08 03:59:29;;;;;;;0.30;0.30;;;-0.40;99.90;;;;;;5155787;27;20980;-82
2022/12/08 04:01:55;;;;;;;0.30;0.20;;;-0.40;99.90;;;;;;5156113;27;20460;-83
2022/12/08 04:04:22;;;;;;;0.70;0.60;;;-0.40;99.90;;;;;;5155674;27;20940;-83
2022/12/08 04:06:49;;;;;;;0.30;0.30;;;-0.40;99.90;;;;;;5155514;27;21003;-83
2022/12/08 04:09:16;;;;;;;0.30;0.30;;;-0.40;99.90;;;;;;5155981;27;20464;-82
2022/12/08 04:11:44;;;;;;;0.30;0.20;;;-0.40;99.90;;;;;;5155907;27;20450;-82
2022/12/08 04:14:11;;;;;;;0.30;0.30;;;-0.40;99.90;;;;;;5155860;27;20442;-83
2022/12/08 04:16:38;;;;;;;0.40;0.30;;;-0.40;99.90;;;;;;5155400;27;20951;-83
2022/12/08 04:19:04;;;;;;;0.30;0.30;;;-0.40;99.90;;;;;;5155399;27;20944;-82
2022/12/08 04:21:31;;;;;;;0.30;0.30;;;-0.40;99.90;;;;;;5155350;27;20477;-83
2022/12/08 04:23:58;;;;;;;0.30;0.30;;;-0.50;99.90;;;;;;5155710;27;20445;-82
2022/12/08 04:26:25;;;;;;;0.30;0.30;;;-0.50;99.90;;;;;;5155375;27;20464;-83
2022/12/08 04:28:53;;;;;;;0.30;0.30;;;-0.50;99.90;;;;;;5155586;27;20439;-82
2022/12/08 04:31:20;;;;;;;0.30;0.30;;;-0.50;99.90;;;;;;5155538;27;20445;-83
2022/12/08 04:33:47;;;;;;;0.40;0.40;;;-0.50;99.90;;;;;;5155534;27;20421;-83
2022/12/08 04:36:14;;;;;;;1.33;1.17;;;-0.50;99.90;;;;;;5155113;27;20531;-82
2022/12/08 04:38:41;;;;;;;0.30;0.30;;;-0.50;99.90;;;;;;5155434;27;20754;-83
2022/12/08 04:41:08;;;;;;;0.30;0.30;;;-0.50;99.90;;;;;;5155944;27;20442;-83
2022/12/08 04:43:35;;;;;;;0.40;0.40;;;-0.50;99.90;;;;;;5155008;27;20459;-83
2022/12/08 04:46:06;;;;;;;0.30;0.20;;;-0.50;99.90;;;;;;5155342;27;20469;-83
2022/12/08 04:48:33;;;;;;;0.37;0.37;;;-0.50;99.90;;;;;;5154981;27;20907;-82
2022/12/08 04:51:00;;;;;;;0.30;0.27;;;-0.50;99.90;;;;;;5155279;27;20448;-83
2022/12/08 04:53:26;;;;;;;2.73;0.70;;;-0.50;99.90;;;;;;5155376;27;20424;-83
2022/12/08 04:55:53;;;;;;;0.50;0.40;;;-0.50;99.90;;;;;;5155159;27;20461;-83
2022/12/08 04:58:20;;;;;;;0.30;0.30;;;-0.50;99.90;;;;;;5154891;27;20975;-82
2022/12/08 05:00:48;;;;;;;0.47;0.47;;;-0.50;99.90;;;;;;5154822;27;20944;-83
2022/12/08 05:03:17;;;;;;;0.30;0.30;;;-0.50;99.90;;;;;;5155178;27;20806;-82
2022/12/08 05:05:44;;;;;;;0.30;0.27;;;-0.50;99.90;;;;;;5155028;27;20481;-82
2022/12/08 05:08:11;;;;;;;0.30;0.30;;;-0.50;99.90;;;;;;5155027;27;20473;-83
2022/12/08 05:10:39;;;;;;;0.30;0.30;;;-0.50;99.90;;;;;;5155886;27;20420;-83
2022/12/08 05:13:06;;;;;;;0.30;0.30;;;-0.50;99.90;;;;;;5154762;27;20879;-83
2022/12/08 05:15:32;;;;;;;0.30;0.30;;;-0.50;99.90;;;;;;5154998;27;20821;-82
2022/12/08 05:17:59;;;;;;;0.30;0.30;;;-0.50;99.90;;;;;;5155032;27;20443;-83
2022/12/08 05:20:27;;;;;;;0.30;0.20;;;-0.60;99.90;;;;;;5154755;27;20478;-82
2022/12/08 05:22:54;;;;;;;0.30;0.20;;;-0.50;99.90;;;;;;5154680;27;20434;-82
2022/12/08 05:25:21;;;;;;;0.30;0.30;;;-0.50;99.90;;;;;;5154840;27;20480;-82
2022/12/08 05:27:47;;;;;;;0.33;0.33;;;-0.60;99.90;;;;;;5154551;27;20444;-83
2022/12/08 05:30:14;;;;;;;0.30;0.20;;;-0.60;99.90;;;;;;5154872;27;20422;-83
2022/12/08 05:32:41;;;;;;;0.30;0.30;;;-0.70;99.90;;;;;;5154588;27;20926;-83
2022/12/08 05:35:08;;;;;;;0.30;0.30;;;-0.70;99.90;;;;;;5154417;27;20452;-83
2022/12/08 05:37:37;;;;;;;0.30;0.30;;;-0.70;99.90;;;;;;5156182;27;20800;-83
2022/12/08 05:40:04;;;;;;;0.53;0.53;;;-0.70;99.90;;;;;;5158931;27;20803;-82
2022/12/08 05:42:31;;;;;;;0.70;0.40;;;-0.70;99.90;;;;;;5158450;27;20450;-83
2022/12/08 05:44:58;;;;;;;0.30;0.30;;;-0.70;99.90;;;;;;5158747;27;20461;-83
2022/12/08 05:47:24;;;;;;;0.30;0.30;;;-0.70;99.90;;;;;;5158713;27;20477;-82
2022/12/08 05:49:51;;;;;;;0.30;0.30;;;-0.70;99.90;;;;;;5158688;27;20441;-82
2022/12/08 05:52:18;;;;;;;0.30;0.30;;;-0.80;99.90;;;;;;5158675;27;20442;-82
2022/12/08 05:54:46;;;;;;;1.27;1.17;;;-0.80;99.90;;;;;;5158580;27;20442;-83
2022/12/08 05:57:13;;;;;;;0.30;0.30;;;-0.80;99.90;;;;;;5158504;27;20441;-82
2022/12/08 05:59:39;;;;;;;0.30;0.30;;;-0.80;99.90;;;;;;5158494;27;20442;-82
2022/12/08 06:02:07;;;;;;;0.30;0.20;;;-0.80;99.90;;;;;;5158601;27;20797;-82
2022/12/08 06:04:34;;;;;;;0.30;0.30;;;-0.80;99.90;;;;;;5158082;27;20928;-83
2022/12/08 06:07:01;;;;;;;0.30;0.20;;;-0.70;99.90;;;;;;5158262;27;20462;-82
2022/12/08 06:09:27;;;;;;;0.30;0.30;;;-0.80;99.90;;;;;;5158318;27;20423;-82
2022/12/08 06:11:55;;;;;;;0.40;0.40;;;-0.80;99.90;;;;;;5158295;27;20416;-83
2022/12/08 06:14:22;;;;;;;0.50;0.50;;;-0.80;99.90;;;;;;5158131;27;20427;-82
2022/12/08 06:16:49;;;;;;;0.30;0.30;;;-0.80;99.90;;;;;;5158093;27;20474;-83
2022/12/08 06:19:16;;;;;;;0.30;0.30;;;-0.80;99.90;;;;;;5158076;27;20457;-83
2022/12/08 06:21:42;;;;;;;0.30;0.30;;;-0.80;99.90;;;;;;5157563;27;20474;-83
2022/12/08 06:24:10;;;;;;;0.30;0.20;;;-0.80;99.90;;;;;;5157705;27;20427;-83
2022/12/08 06:26:39;;;;;;;0.30;0.30;;;-0.80;99.90;;;;;;5157802;27;20470;-83
2022/12/08 06:29:07;;;;;;;0.30;0.30;;;-0.80;99.90;;;;;;5157918;27;20513;-82
2022/12/08 06:31:34;;;;;;;0.30;0.30;;;-0.80;99.90;;;;;;5157811;27;20449;-82
2022/12/08 06:34:00;;;;;;;0.30;0.30;;;-0.90;99.90;;;;;;5157805;27;20441;-82
2022/12/08 06:36:28;;;;;;;0.70;0.70;;;-1.00;99.90;;;;;;5157711;27;20457;-82
2022/12/08 06:38:55;;;;;;;0.30;0.30;;;-1.00;99.90;;;;;;5157441;27;20442;-82
2022/12/08 06:41:21;;;;;;;0.30;0.30;;;-1.00;99.90;;;;;;5157465;27;20809;-82
2022/12/08 06:43:48;;;;;;;0.30;0.30;;;-1.00;99.90;;;;;;5157689;27;20442;-82
2022/12/08 06:46:18;;;;;;;0.80;0.80;;;-1.00;99.90;;;;;;5157682;27;20785;-82
2022/12/08 06:48:45;;;;;;;0.50;0.50;;;-1.10;99.90;;;;;;5155861;27;20453;-82
2022/12/08 06:51:13;;;;;;;0.47;0.47;;;-1.10;99.90;;;;;;5157076;27;20816;-83
2022/12/08 06:53:41;;;;;;;0.50;0.50;;;-1.10;99.90;;;;;;5157440;27;20442;-82
2022/12/08 06:56:08;;;;;;;0.30;0.30;;;-1.10;99.90;;;;;;5157029;27;20962;-82
2022/12/08 06:58:35;;;;;;;0.30;0.30;;;-1.10;99.90;;;;;;5157373;27;20412;-82
2022/12/08 07:01:07;;;;;;;2.50;1.90;;;-1.10;99.90;;;;;;5157301;27;20416;-82
2022/12/08 07:03:35;;;;;;;0.30;0.30;;;-1.10;99.90;;;;;;5157034;27;20930;-82
2022/12/08 07:06:02;;;;;;;0.30;0.30;;;-1.10;99.90;;;;;;5157097;27;20437;-82
2022/12/08 07:08:28;;;;;;;0.30;0.30;;;-1.20;99.90;;;;;;5156750;27;21012;-82
2022/12/08 07:10:55;;;;;;;0.30;0.30;;;-1.20;99.90;;;;;;5156731;27;20445;-82
2022/12/08 07:13:22;;;;;;;0.33;0.33;;;-1.20;99.90;;;;;;5157007;27;20416;-82
2022/12/08 07:15:49;;;;;;;0.30;0.30;;;-1.20;99.90;;;;;;5156910;27;20437;-82
2022/12/08 07:18:15;;;;;;;0.30;0.30;;;-1.20;99.90;;;;;;5156651;27;20757;-82
2022/12/08 07:20:43;;;;;;;0.30;0.30;;;-1.10;99.90;;;;;;5156544;27;20459;-82
2022/12/08 07:23:10;;;;;;;0.30;0.30;;;-1.10;99.90;;;;;;5156893;27;20430;-82
2022/12/08 07:25:37;;;;;;;0.30;0.30;;;-1.10;99.90;;;;;;5156765;27;20441;-82
2022/12/08 07:28:09;;;;;;;0.30;0.30;;;-1.10;99.90;;;;;;5156380;27;20448;-82
2022/12/08 07:30:36;;;;;;;0.30;0.20;;;-1.10;99.90;;;;;;5156551;27;20896;-82
2022/12/08 07:33:04;;;;;;;0.30;0.30;;;-1.10;99.90;;;;;;5156679;27;20453;-82
2022/12/08 07:35:31;;;;;;;0.40;0.37;;;-1.10;99.90;;;;;;5156563;27;20473;-82
2022/12/08 07:37:59;;;;;;;0.30;0.30;;;-1.00;99.90;;;;;;5156294;27;20412;-82
2022/12/08 07:40:26;;;;;;;0.30;0.20;;;-1.00;99.90;;;;;;5156337;27;20431;-81
2022/12/08 07:42:52;;;;;;;0.30;0.30;;;-1.10;99.90;;;;;;5156571;27;20443;-82
2022/12/08 07:45:19;;;;;;;0.70;0.70;;;-1.10;99.90;;;;;;5155971;27;20436;-82
2022/12/08 07:47:46;;;;;;;0.30;0.30;;;-1.00;99.90;;;;;;5156343;27;20477;-82
2022/12/08 07:50:13;;;;;;;0.43;0.43;;;-1.00;99.90;;;;;;5156274;27;20431;-80
2022/12/08 07:52:39;;;;;;;0.30;0.30;;;-1.00;99.90;;;;;;5156232;27;20442;-80
2022/12/08 07:55:09;;;;;;;0.40;0.30;;;-0.90;99.90;;;;;;5155771;27;20992;-80
2022/12/08 07:57:36;;;;;;;0.37;0.33;;;-0.90;99.90;;;;;;5156167;27;20446;-80
2022/12/08 08:00:04;;;;;;;0.30;0.30;;;-0.80;99.90;;;;;;5155657;27;20417;-80
2022/12/08 08:02:30;;;;;;;0.30;0.30;;;-0.80;99.90;;;;;;5155736;27;20446;-80
2022/12/08 08:04:57;;;;;;;0.30;0.30;;;-0.80;99.90;;;;;;5155950;27;20416;-80
2022/12/08 08:07:24;;;;;;;0.30;0.30;;;-0.80;99.90;;;;;;5155979;27;20442;-80
2022/12/08 08:09:51;;;;;;;0.30;0.30;;;-0.70;99.90;;;;;;5155830;27;20485;-80
2022/12/08 08:12:19;;;;;;;1.23;0.50;;;-0.70;99.90;;;;;;5155887;27;20438;-80
2022/12/08 08:14:45;;;;;;;0.40;0.40;;;-0.60;99.90;;;;;;5155435;27;20446;-80
2022/12/08 08:17:12;;;;;;;0.40;0.40;;;-0.60;99.90;;;;;;5155731;27;20521;-80
2022/12/08 08:19:39;;;;;;;0.70;0.70;;;-0.60;99.90;;;;;;5155374;27;20802;-80
2022/12/08 08:22:06;;;;;;;0.30;0.30;;;-0.50;99.90;;;;;;5155216;27;20996;-80
2022/12/08 08:24:32;;;;;;;0.30;0.30;;;-0.50;99.90;;;;;;5155637;27;20412;-80
2022/12/08 08:26:59;;;;;;;0.30;0.30;;;-0.50;99.90;;;;;;5155529;27;20445;-80
2022/12/08 08:29:27;;;;;;;0.30;0.30;;;-0.50;99.90;;;;;;5155512;27;20456;-80
2022/12/08 08:31:54;;;;;;;0.30;0.30;;;-0.40;99.90;;;;;;5155544;27;20424;-80
2022/12/08 08:34:21;;;;;;;0.30;0.30;;;-0.40;99.90;;;;;;5155503;27;20424;-80
2022/12/08 08:36:48;;;;;;;0.40;0.40;;;-0.30;99.90;;;;;;5155410;27;20458;-80
2022/12/08 08:39:14;;;;;;;0.30;0.30;;;-0.30;99.90;;;;;;5155102;27;20937;-80
2022/12/08 08:41:41;;;;;;;0.30;0.20;;;-0.30;99.90;;;;;;5155374;27;20424;-80
2022/12/08 08:44:08;;;;;;;0.30;0.30;;;-0.20;99.90;;;;;;5155296;27;20441;-80
2022/12/08 08:46:36;;;;;;;1.17;0.83;;;-0.20;99.90;;;;;;5154966;27;20467;-80
2022/12/08 08:49:03;;;;;;;0.30;0.30;;;-0.10;99.90;;;;;;5154969;27;20469;-80
2022/12/08 08:51:30;;;;;;;0.40;0.30;;;-0.10;99.90;;;;;;5155283;27;20420;-80
2022/12/08 08:53:57;;;;;;;0.30;0.30;;;-0.20;99.90;;;;;;5155215;27;20438;-81
2022/12/08 08:56:24;;;;;;;0.30;0.30;;;-0.10;99.90;;;;;;5154778;27;20977;-81
2022/12/08 08:58:52;;;;;;;0.70;0.57;;;-0.10;99.90;;;;;;5155120;27;20412;-81
2022/12/08 09:01:20;;;;;;;0.30;0.20;;;0.00;99.90;;;;;;5155203;27;20413;-81
2022/12/08 09:03:49;;;;;;;0.30;0.30;;;0.00;99.90;;;;;;5155150;27;20426;-81
2022/12/08 09:06:17;;;;;;;0.30;0.30;;;0.20;99.90;;;;;;5155010;27;20465;-81
2022/12/08 09:08:44;;;;;;;1.33;1.23;;;0.30;99.90;;;;;;5154683;27;20881;-81
2022/12/08 09:11:11;;;;;;;0.30;0.30;;;0.30;99.90;;;;;;5155044;27;20446;-80
2022/12/08 09:13:38;;;;;;;0.87;0.87;;;0.40;99.90;;;;;;5158432;27;20442;-81
2022/12/08 09:16:08;;;;;;;0.93;0.53;;;0.40;99.90;;;;;;5159272;27;20461;-81
2022/12/08 09:18:35;;;;;;;0.30;0.30;;;0.50;99.90;;;;;;5159252;27;20433;-81
2022/12/08 09:21:07;;;;;;;0.73;0.43;;;0.60;99.90;;;;;;5158896;27;20451;-81
2022/12/08 09:23:33;;;;;;;0.30;0.30;;;0.60;99.90;;;;;;5158888;27;21013;-81
2022/12/08 09:26:00;;;;;;;0.30;0.30;;;0.70;99.90;;;;;;5159043;27;20461;-80
2022/12/08 09:28:27;;;;;;;0.57;0.57;;;0.80;99.90;;;;;;5159090;27;20523;-81
2022/12/08 09:30:54;;;;;;;0.30;0.30;;;1.00;99.90;;;;;;5159059;27;20442;-81
2022/12/08 09:33:21;;;;;;;1.13;1.03;;;1.10;99.90;;;;;;5159026;27;20814;-81
2022/12/08 09:35:47;;;;;;;1.07;0.60;;;1.20;99.90;;;;;;5158814;27;20473;-81
2022/12/08 09:38:16;;;;;;;0.30;0.30;;;1.30;99.90;;;;;;5158921;27;20440;-81
2022/12/08 09:40:49;;;;;;;0.30;0.30;;;1.80;99.90;;;;;;5158820;27;20454;-81
2022/12/08 09:43:26;;;;;;;0.30;0.30;;;2.80;99.90;;;;;;5158811;27;20426;-80
2022/12/08 09:45:55;;;;;;;0.53;0.50;;;3.80;99.90;;;;;;5158389;27;20462;-81
2022/12/08 09:48:25;;;;;;;0.30;0.20;;;5.00;99.90;;;;;;5158642;27;20465;-80
2022/12/08 09:50:55;;;;;;;0.53;0.53;;;6.50;99.90;;;;;;5158666;27;20441;-80
2022/12/08 09:53:27;;;;;;;0.93;0.93;;;7.90;99.90;;;;;;5158561;27;20445;-80
2022/12/08 09:55:57;;;;;;;0.50;0.50;;;9.10;99.90;;;;;;5158235;27;20476;-80
2022/12/08 09:58:32;;;;;;;1.30;0.70;;;10.50;99.90;;;;;;5158554;27;20785;-80
2022/12/08 10:00:59;;;;;;;0.50;0.40;;;11.70;99.90;;;;;;5158512;27;20426;-80
2022/12/08 10:03:30;;;;;;;1.27;0.90;;;12.10;99.90;;;;;;5158420;27;20456;-80
2022/12/08 10:06:04;;;;;;;0.70;0.60;;;11.70;99.90;;;;;;5158314;27;20469;-80
2022/12/08 10:08:41;;;;;;;1.10;0.83;;;10.60;99.90;;;;;;5158324;27;20469;-80
2022/12/08 10:11:12;;;;;;;1.00;0.60;;;9.10;99.90;;;;;;5158264;27;20433;-80
2022/12/08 10:13:46;;;;;;;1.00;0.50;;;8.00;99.90;;;;;;5158239;27;20437;-80
2022/12/08 10:16:22;;;;;;;1.13;0.50;;;7.30;99.90;;;;;;5158159;27;20473;-80
2022/12/08 10:18:55;;;;;;;0.60;0.60;;;6.70;99.90;;;;;;5158252;27;20446;-80
2022/12/08 10:21:27;;;;;;;1.60;0.90;;;6.30;99.90;;;;;;5157663;27;20504;-80
2022/12/08 10:24:01;;;;;;;0.50;0.50;;;5.60;99.90;;;;;;5157619;27;20843;-80
2022/12/08 10:26:31;;;;;;;0.30;0.30;;;5.30;99.90;;;;;;5157929;27;20462;-79
2022/12/08 10:29:00;;;;;;;1.53;0.47;;;4.90;99.90;;;;;;5157931;27;20567;-79
2022/12/08 10:31:27;;;;;;;0.40;0.40;;;4.70;99.90;;;;;;5157836;27;20450;-79
2022/12/08 10:33:57;;;;;;;2.80;0.70;;;4.50;99.90;;;;;;5157820;27;20449;-79
2022/12/08 10:36:44;;;;;;;1.53;1.43;;;4.40;99.90;;;;;;5157668;27;20466;-79
2022/12/08 10:39:33;;;;;;;0.47;0.47;;;4.20;99.90;;;;;;5157760;27;20429;-79
2022/12/08 10:42:02;;;;;;;0.50;0.50;;;3.90;99.90;;;;;;5157679;27;20433;-79
2022/12/08 10:44:29;;;;;;;0.50;0.40;;;3.70;99.90;;;;;;5157278;27;20463;-79
2022/12/08 10:46:56;;;;;;;0.40;0.40;;;3.60;99.90;;;;;;5157480;27;20481;-78
2022/12/08 10:49:27;;;;;;;0.40;0.30;;;3.60;99.90;;;;;;5157431;27;20559;-78
2022/12/08 10:51:53;;;;;;;0.30;0.20;;;3.50;99.90;;;;;;5157571;27;20430;-78
2022/12/08 10:54:34;;;;;;;0.60;0.50;;;3.60;99.90;;;;;;5157433;27;20442;-79
2022/12/08 10:57:01;;;;;;;0.30;0.30;;;3.40;99.90;;;;;;5157344;27;20466;-79
2022/12/08 10:59:28;;;;;;;0.70;0.47;;;3.30;99.90;;;;;;5157332;27;20438;-78
2022/12/08 11:01:56;;;;;;;0.30;0.30;;;3.30;99.90;;;;;;5157269;27;20449;-79
2022/12/08 11:04:30;;;;;;;1.23;1.13;;;3.20;99.90;;;;;;5157204;27;20812;-79
2022/12/08 11:06:57;;;;;;;0.83;0.70;;;3.30;99.90;;;;;;5156821;27;20839;-78
2022/12/08 11:09:42;;;;;;;0.73;0.40;;;3.30;99.90;;;;;;5157057;27;20503;-78
2022/12/08 11:12:13;;;;;;;0.50;0.50;;;3.40;99.90;;;;;;5157134;27;20434;-78
2022/12/08 11:14:49;;;;;;;2.43;0.80;;;3.40;99.90;;;;;;5156926;27;20490;-78
2022/12/08 11:17:23;;;;;;;0.30;0.30;;;3.50;99.90;;;;;;5156782;27;20904;-78
2022/12/08 11:19:56;;;;;;;0.30;0.30;;;3.50;99.90;;;;;;5156975;27;20420;-78
2022/12/08 11:22:26;;;;;;;1.07;1.07;;;3.60;99.90;;;;;;5156452;27;21010;-78
2022/12/08 11:25:09;;;;;;;0.50;0.33;;;3.50;99.90;;;;;;5156759;27;20442;-78
2022/12/08 11:27:37;;;;;;;0.30;0.30;;;3.60;99.90;;;;;;5156795;27;20426;-78
2022/12/08 11:30:14;;;;;;;0.30;0.30;;;3.50;99.90;;;;;;5156668;27;20478;-78
2022/12/08 11:32:44;;;;;;;0.70;0.40;;;3.50;99.90;;;;;;5156706;27;20434;-78
2022/12/08 11:35:20;;;;;;;0.93;0.83;;;3.50;99.90;;;;;;5155481;27;21033;-78
2022/12/08 11:37:47;;;;;;;0.33;0.33;;;3.60;99.90;;;;;;5156613;27;20429;-78
2022/12/08 11:40:21;;;;;;;0.30;0.30;;;3.60;99.90;;;;;;5156991;27;20777;-78
2022/12/08 11:42:58;;;;;;;0.30;0.30;;;3.70;99.90;;;;;;5156447;27;20428;-78
2022/12/08 11:45:31;;;;;;;0.83;0.80;;;3.70;99.90;;;;;;5156256;27;20519;-78
2022/12/08 11:48:06;;;;;;;0.40;0.30;;;3.80;99.90;;;;;;5156426;27;20427;-78
2022/12/08 11:50:41;;;;;;;0.40;0.30;;;3.90;99.90;;;;;;5156228;27;20464;-78
2022/12/08 11:53:16;;;;;;;0.60;0.40;;;4.10;99.90;;;;;;5155980;27;20897;-78
2022/12/08 11:55:49;;;;;;;0.40;0.40;;;4.10;99.90;;;;;;5156197;27;20469;-78
2022/12/08 11:58:20;;;;;;;0.30;0.30;;;4.00;99.90;;;;;;5156088;27;20454;-78
2022/12/08 12:00:47;;;;;;;0.30;0.30;;;4.00;99.90;;;;;;5156157;27;20500;-78
2022/12/08 12:03:22;;;;;;;1.80;0.70;;;4.10;99.90;;;;;;5156070;27;20820;-78
2022/12/08 12:06:05;;;;;;;0.40;0.30;;;4.10;99.90;;;;;;5155982;27;20504;-78
2022/12/08 12:08:47;;;;;;;0.40;0.40;;;4.10;99.90;;;;;;5156029;27;20438;-78
2022/12/08 12:14:17;;;;;;;0.60;0.60;;;4.20;99.90;;;;;;5155282;27;20809;-78
2022/12/08 12:17:04;;;;;;;0.60;0.40;;;4.30;99.90;;;;;;5155793;27;20465;-78
2022/12/08 12:19:36;;;;;;;0.50;0.40;;;4.30;99.90;;;;;;5156651;27;20419;-78
2022/12/08 12:22:13;;;;;;;0.30;0.30;;;4.30;99.90;;;;;;5155283;27;20983;-78
2022/12/08 12:24:42;;;;;;;0.40;0.30;;;4.20;99.90;;;;;;5155322;27;20804;-78
2022/12/08 12:27:24;;;;;;;0.60;0.30;;;4.10;99.90;;;;;;5155692;27;20831;-78
2022/12/08 12:29:55;;;;;;;0.50;0.50;;;4.00;99.90;;;;;;5155528;27;20469;-78
2022/12/08 12:32:23;;;;;;;0.50;0.40;;;3.90;99.90;;;;;;5155281;27;20916;-78
2022/12/08 12:34:53;;;;;;;1.70;1.70;;;3.90;99.90;;;;;;5155419;27;20519;-78
2022/12/08 12:37:22;;;;;;;0.50;0.50;;;4.00;99.90;;;;;;5155446;27;20469;-78
2022/12/08 12:39:55;;;;;;;0.30;0.30;;;4.00;99.90;;;;;;5155450;27;20442;-78
2022/12/08 12:42:41;;;;;;;0.97;0.50;;;4.00;99.90;;;;;;5155402;27;20430;-78
2022/12/08 12:45:25;;;;;;;0.33;0.27;;;4.10;99.90;;;;;;5155340;27;20549;-78
2022/12/08 12:48:12;;;;;;;0.67;0.40;;;4.00;99.90;;;;;;5154974;27;20934;-78
2022/12/08 12:50:44;;;;;;;0.40;0.40;;;3.80;99.90;;;;;;5155554;27;20537;-78
2022/12/08 12:53:49;;;;;;;1.33;1.23;;;3.80;99.90;;;;;;5154961;27;20446;-78
2022/12/08 12:56:47;;;;;;;0.40;0.30;;;3.90;99.90;;;;;;5155167;27;20515;-78
2022/12/08 12:59:45;;;;;;;0.30;0.30;;;3.90;99.90;;;;;;5154307;27;20444;-78
2022/12/08 13:02:28;;;;;;;0.50;0.40;;;4.00;99.90;;;;;;5155101;27;20446;-76
2022/12/08 13:04:59;;;;;;;0.70;0.70;;;4.00;99.90;;;;;;5155066;27;20414;-77
2022/12/08 13:07:29;;;;;;;0.30;0.30;;;4.00;99.90;;;;;;5155199;27;20483;-78
2022/12/08 13:09:59;;;;;;;0.30;0.20;;;4.00;99.90;;;;;;5154740;27;20991;-78
2022/12/08 13:12:27;;;;;;;1.03;0.53;;;4.00;99.90;;;;;;5155099;27;20443;-78